sensor_id;sensor_type;location;lat;lon;timestamp;P1;durP1;ratioP1;P2;durP2;ratioP2
4466;SDS011;2246;42.664;23.278;2024-01-30T00:01:22;6.95;;;3.53;;
4466;SDS011;2246;42.664;23.278;2024-01-30T00:03:48;7.53;;;3.85;;
4466;SDS011;2246;42.664;23.278;2024-01-30T00:06:18;8.55;;;3.88;;
4466;SDS011;2246;42.664;23.278;2024-01-30T00:08:44;6.03;;;3.22;;
4466;SDS011;2246;42.664;23.278;2024-01-30T00:11:13;7.07;;;3.25;;
4466;SDS011;2246;42.664;23.278;2024-01-30T00:13:39;5.50;;;3.17;;
4466;SDS011;2246;42.664;23.278;2024-01-30T00:16:06;7.03;;;3.42;;
4466;SDS011;2246;42.664;23.278;2024-01-30T00:18:32;8.40;;;3.80;;
4466;SDS011;2246;42.664;23.278;2024-01-30T00:20:58;6.43;;;3.13;;
4466;SDS011;2246;42.664;23.278;2024-01-30T00:23:24;6.90;;;3.25;;
4466;SDS011;2246;42.664;23.278;2024-01-30T00:25:50;10.25;;;4.10;;
4466;SDS011;2246;42.664;23.278;2024-01-30T00:28:16;8.73;;;3.60;;
4466;SDS011;2246;42.664;23.278;2024-01-30T00:30:42;10.15;;;3.28;;
4466;SDS011;2246;42.664;23.278;2024-01-30T00:33:08;8.38;;;4.13;;
4466;SDS011;2246;42.664;23.278;2024-01-30T00:35:35;8.43;;;3.72;;
4466;SDS011;2246;42.664;23.278;2024-01-30T00:38:01;11.43;;;4.65;;
4466;SDS011;2246;42.664;23.278;2024-01-30T00:40:27;8.98;;;4.22;;
4466;SDS011;2246;42.664;23.278;2024-01-30T00:42:53;8.93;;;3.97;;
4466;SDS011;2246;42.664;23.278;2024-01-30T00:45:19;7.88;;;3.88;;
4466;SDS011;2246;42.664;23.278;2024-01-30T00:47:45;10.88;;;4.85;;
4466;SDS011;2246;42.664;23.278;2024-01-30T00:50:11;8.93;;;4.22;;
4466;SDS011;2246;42.664;23.278;2024-01-30T00:52:37;10.05;;;3.95;;
4466;SDS011;2246;42.664;23.278;2024-01-30T00:55:04;7.87;;;3.60;;
4466;SDS011;2246;42.664;23.278;2024-01-30T00:57:30;8.60;;;3.65;;
4466;SDS011;2246;42.664;23.278;2024-01-30T00:59:57;11.30;;;4.88;;
4466;SDS011;2246;42.664;23.278;2024-01-30T01:02:23;15.85;;;5.05;;
4466;SDS011;2246;42.664;23.278;2024-01-30T01:04:49;9.95;;;4.78;;
4466;SDS011;2246;42.664;23.278;2024-01-30T01:07:15;9.80;;;4.88;;
4466;SDS011;2246;42.664;23.278;2024-01-30T01:09:41;11.40;;;4.15;;
4466;SDS011;2246;42.664;23.278;2024-01-30T01:12:07;16.15;;;5.45;;
4466;SDS011;2246;42.664;23.278;2024-01-30T01:14:33;11.88;;;4.93;;
4466;SDS011;2246;42.664;23.278;2024-01-30T01:16:59;12.15;;;4.00;;
4466;SDS011;2246;42.664;23.278;2024-01-30T01:19:25;9.07;;;3.65;;
4466;SDS011;2246;42.664;23.278;2024-01-30T01:21:51;6.25;;;3.15;;
4466;SDS011;2246;42.664;23.278;2024-01-30T01:24:18;11.05;;;4.80;;
4466;SDS011;2246;42.664;23.278;2024-01-30T01:26:44;8.48;;;4.05;;
4466;SDS011;2246;42.664;23.278;2024-01-30T01:29:10;11.00;;;3.90;;
4466;SDS011;2246;42.664;23.278;2024-01-30T01:31:37;9.32;;;3.92;;
4466;SDS011;2246;42.664;23.278;2024-01-30T01:34:12;9.43;;;3.72;;
4466;SDS011;2246;42.664;23.278;2024-01-30T01:36:39;8.07;;;3.55;;
4466;SDS011;2246;42.664;23.278;2024-01-30T01:39:05;6.68;;;3.20;;
4466;SDS011;2246;42.664;23.278;2024-01-30T01:41:31;7.30;;;3.88;;
4466;SDS011;2246;42.664;23.278;2024-01-30T01:43:57;5.93;;;3.13;;
4466;SDS011;2246;42.664;23.278;2024-01-30T01:46:24;7.43;;;2.97;;
4466;SDS011;2246;42.664;23.278;2024-01-30T01:48:50;6.90;;;3.07;;
4466;SDS011;2246;42.664;23.278;2024-01-30T01:51:16;6.75;;;3.40;;
4466;SDS011;2246;42.664;23.278;2024-01-30T01:53:42;7.25;;;3.58;;
4466;SDS011;2246;42.664;23.278;2024-01-30T01:56:08;7.35;;;3.42;;
4466;SDS011;2246;42.664;23.278;2024-01-30T01:58:35;6.40;;;3.08;;
4466;SDS011;2246;42.664;23.278;2024-01-30T02:01:01;8.52;;;3.42;;
4466;SDS011;2246;42.664;23.278;2024-01-30T02:03:27;7.07;;;3.50;;
4466;SDS011;2246;42.664;23.278;2024-01-30T02:05:53;6.85;;;3.63;;
4466;SDS011;2246;42.664;23.278;2024-01-30T02:08:20;7.43;;;3.67;;
4466;SDS011;2246;42.664;23.278;2024-01-30T02:10:46;8.30;;;3.50;;
4466;SDS011;2246;42.664;23.278;2024-01-30T02:13:12;7.53;;;3.58;;
4466;SDS011;2246;42.664;23.278;2024-01-30T02:15:38;6.90;;;3.33;;
4466;SDS011;2246;42.664;23.278;2024-01-30T02:18:04;7.90;;;3.70;;
4466;SDS011;2246;42.664;23.278;2024-01-30T02:20:30;7.93;;;3.22;;
4466;SDS011;2246;42.664;23.278;2024-01-30T02:22:57;11.55;;;3.28;;
4466;SDS011;2246;42.664;23.278;2024-01-30T02:25:38;10.05;;;4.20;;
4466;SDS011;2246;42.664;23.278;2024-01-30T02:28:09;5.68;;;2.67;;
4466;SDS011;2246;42.664;23.278;2024-01-30T02:30:35;7.35;;;3.33;;
4466;SDS011;2246;42.664;23.278;2024-01-30T02:33:01;5.10;;;3.28;;
4466;SDS011;2246;42.664;23.278;2024-01-30T02:35:27;9.02;;;3.63;;
4466;SDS011;2246;42.664;23.278;2024-01-30T02:37:53;6.45;;;3.13;;
4466;SDS011;2246;42.664;23.278;2024-01-30T02:40:19;8.38;;;3.30;;
4466;SDS011;2246;42.664;23.278;2024-01-30T02:42:45;7.38;;;3.38;;
4466;SDS011;2246;42.664;23.278;2024-01-30T02:45:11;6.32;;;3.00;;
4466;SDS011;2246;42.664;23.278;2024-01-30T02:47:38;6.78;;;3.47;;
4466;SDS011;2246;42.664;23.278;2024-01-30T02:50:04;15.30;;;5.05;;
4466;SDS011;2246;42.664;23.278;2024-01-30T02:52:31;8.07;;;3.83;;
4466;SDS011;2246;42.664;23.278;2024-01-30T02:54:57;8.10;;;3.85;;
4466;SDS011;2246;42.664;23.278;2024-01-30T02:57:23;11.00;;;3.67;;
4466;SDS011;2246;42.664;23.278;2024-01-30T02:59:49;5.97;;;3.15;;
4466;SDS011;2246;42.664;23.278;2024-01-30T03:02:15;5.28;;;2.72;;
4466;SDS011;2246;42.664;23.278;2024-01-30T03:04:41;6.50;;;3.10;;
4466;SDS011;2246;42.664;23.278;2024-01-30T03:07:07;5.32;;;2.95;;
4466;SDS011;2246;42.664;23.278;2024-01-30T03:09:34;5.82;;;3.28;;
4466;SDS011;2246;42.664;23.278;2024-01-30T03:12:00;6.57;;;3.25;;
4466;SDS011;2246;42.664;23.278;2024-01-30T03:14:26;6.93;;;2.92;;
4466;SDS011;2246;42.664;23.278;2024-01-30T03:16:52;5.55;;;2.60;;
4466;SDS011;2246;42.664;23.278;2024-01-30T03:19:18;6.50;;;3.10;;
4466;SDS011;2246;42.664;23.278;2024-01-30T03:21:44;8.50;;;3.47;;
4466;SDS011;2246;42.664;23.278;2024-01-30T03:24:10;5.82;;;2.90;;
4466;SDS011;2246;42.664;23.278;2024-01-30T03:26:36;6.88;;;2.92;;
4466;SDS011;2246;42.664;23.278;2024-01-30T03:29:02;4.72;;;2.58;;
4466;SDS011;2246;42.664;23.278;2024-01-30T03:31:28;3.78;;;2.47;;
4466;SDS011;2246;42.664;23.278;2024-01-30T03:33:54;5.82;;;2.85;;
4466;SDS011;2246;42.664;23.278;2024-01-30T03:36:20;6.03;;;2.65;;
4466;SDS011;2246;42.664;23.278;2024-01-30T03:38:46;6.60;;;2.53;;
4466;SDS011;2246;42.664;23.278;2024-01-30T03:41:12;8.98;;;2.92;;
4466;SDS011;2246;42.664;23.278;2024-01-30T03:43:38;7.75;;;2.42;;
4466;SDS011;2246;42.664;23.278;2024-01-30T03:46:04;5.05;;;2.72;;
4466;SDS011;2246;42.664;23.278;2024-01-30T03:48:30;5.57;;;2.72;;
4466;SDS011;2246;42.664;23.278;2024-01-30T03:50:56;6.15;;;2.60;;
4466;SDS011;2246;42.664;23.278;2024-01-30T03:53:22;11.07;;;2.85;;
4466;SDS011;2246;42.664;23.278;2024-01-30T03:55:48;3.58;;;2.25;;
4466;SDS011;2246;42.664;23.278;2024-01-30T03:58:14;5.50;;;3.10;;
4466;SDS011;2246;42.664;23.278;2024-01-30T04:00:40;4.32;;;2.38;;
4466;SDS011;2246;42.664;23.278;2024-01-30T04:03:06;5.43;;;2.47;;
4466;SDS011;2246;42.664;23.278;2024-01-30T04:05:33;5.13;;;2.53;;
4466;SDS011;2246;42.664;23.278;2024-01-30T04:07:59;4.70;;;2.10;;
4466;SDS011;2246;42.664;23.278;2024-01-30T04:10:25;3.28;;;2.13;;
4466;SDS011;2246;42.664;23.278;2024-01-30T04:12:51;5.72;;;2.45;;
4466;SDS011;2246;42.664;23.278;2024-01-30T04:15:17;3.85;;;2.28;;
4466;SDS011;2246;42.664;23.278;2024-01-30T04:17:43;4.10;;;2.05;;
4466;SDS011;2246;42.664;23.278;2024-01-30T04:20:15;3.17;;;2.05;;
4466;SDS011;2246;42.664;23.278;2024-01-30T04:22:44;4.18;;;2.13;;
4466;SDS011;2246;42.664;23.278;2024-01-30T04:25:11;5.70;;;2.05;;
4466;SDS011;2246;42.664;23.278;2024-01-30T04:27:37;6.97;;;2.30;;
4466;SDS011;2246;42.664;23.278;2024-01-30T04:30:03;5.03;;;2.50;;
4466;SDS011;2246;42.664;23.278;2024-01-30T04:32:29;4.43;;;2.35;;
4466;SDS011;2246;42.664;23.278;2024-01-30T04:34:55;6.60;;;2.20;;
4466;SDS011;2246;42.664;23.278;2024-01-30T04:37:21;6.20;;;2.70;;
4466;SDS011;2246;42.664;23.278;2024-01-30T04:39:47;11.20;;;4.55;;
4466;SDS011;2246;42.664;23.278;2024-01-30T04:42:13;9.63;;;3.78;;
4466;SDS011;2246;42.664;23.278;2024-01-30T04:44:39;5.45;;;2.70;;
4466;SDS011;2246;42.664;23.278;2024-01-30T04:47:05;6.63;;;3.08;;
4466;SDS011;2246;42.664;23.278;2024-01-30T04:49:34;5.85;;;2.53;;
4466;SDS011;2246;42.664;23.278;2024-01-30T04:52:00;5.68;;;2.72;;
4466;SDS011;2246;42.664;23.278;2024-01-30T04:54:26;7.07;;;2.67;;
4466;SDS011;2246;42.664;23.278;2024-01-30T04:56:52;5.68;;;3.00;;
4466;SDS011;2246;42.664;23.278;2024-01-30T04:59:18;7.30;;;2.95;;
4466;SDS011;2246;42.664;23.278;2024-01-30T05:01:44;5.13;;;2.78;;
4466;SDS011;2246;42.664;23.278;2024-01-30T05:04:10;5.75;;;2.95;;
4466;SDS011;2246;42.664;23.278;2024-01-30T05:06:36;8.82;;;3.25;;
4466;SDS011;2246;42.664;23.278;2024-01-30T05:09:02;5.07;;;2.58;;
4466;SDS011;2246;42.664;23.278;2024-01-30T05:11:31;5.38;;;3.00;;
4466;SDS011;2246;42.664;23.278;2024-01-30T05:13:57;5.75;;;3.05;;
4466;SDS011;2246;42.664;23.278;2024-01-30T05:16:23;5.32;;;2.50;;
4466;SDS011;2246;42.664;23.278;2024-01-30T05:18:49;5.28;;;2.60;;
4466;SDS011;2246;42.664;23.278;2024-01-30T05:21:15;5.55;;;2.85;;
4466;SDS011;2246;42.664;23.278;2024-01-30T05:23:41;7.25;;;3.22;;
4466;SDS011;2246;42.664;23.278;2024-01-30T05:26:08;6.05;;;3.28;;
4466;SDS011;2246;42.664;23.278;2024-01-30T05:28:34;5.65;;;2.58;;
4466;SDS011;2246;42.664;23.278;2024-01-30T05:31:00;5.05;;;2.88;;
4466;SDS011;2246;42.664;23.278;2024-01-30T05:33:26;7.00;;;3.22;;
4466;SDS011;2246;42.664;23.278;2024-01-30T05:35:52;8.13;;;3.08;;
4466;SDS011;2246;42.664;23.278;2024-01-30T05:38:19;8.95;;;3.33;;
4466;SDS011;2246;42.664;23.278;2024-01-30T05:40:45;6.32;;;3.28;;
4466;SDS011;2246;42.664;23.278;2024-01-30T05:43:12;7.70;;;2.90;;
4466;SDS011;2246;42.664;23.278;2024-01-30T05:45:38;13.57;;;2.97;;
4466;SDS011;2246;42.664;23.278;2024-01-30T05:48:04;5.82;;;2.88;;
4466;SDS011;2246;42.664;23.278;2024-01-30T05:50:30;7.63;;;3.20;;
4466;SDS011;2246;42.664;23.278;2024-01-30T05:52:56;12.32;;;2.88;;
4466;SDS011;2246;42.664;23.278;2024-01-30T05:55:22;6.18;;;3.05;;
4466;SDS011;2246;42.664;23.278;2024-01-30T05:57:48;5.78;;;3.00;;
4466;SDS011;2246;42.664;23.278;2024-01-30T06:00:14;7.28;;;3.15;;
4466;SDS011;2246;42.664;23.278;2024-01-30T06:02:40;6.78;;;3.10;;
4466;SDS011;2246;42.664;23.278;2024-01-30T06:05:07;8.63;;;3.40;;
4466;SDS011;2246;42.664;23.278;2024-01-30T06:07:33;7.88;;;3.63;;
4466;SDS011;2246;42.664;23.278;2024-01-30T06:09:59;10.55;;;3.63;;
4466;SDS011;2246;42.664;23.278;2024-01-30T06:12:27;12.30;;;3.15;;
4466;SDS011;2246;42.664;23.278;2024-01-30T06:14:53;8.20;;;3.22;;
4466;SDS011;2246;42.664;23.278;2024-01-30T06:17:21;7.97;;;3.63;;
4466;SDS011;2246;42.664;23.278;2024-01-30T06:19:47;7.90;;;3.33;;
4466;SDS011;2246;42.664;23.278;2024-01-30T06:22:13;6.47;;;2.92;;
4466;SDS011;2246;42.664;23.278;2024-01-30T06:24:39;5.00;;;2.80;;
4466;SDS011;2246;42.664;23.278;2024-01-30T06:27:05;7.72;;;3.17;;
4466;SDS011;2246;42.664;23.278;2024-01-30T06:29:31;12.27;;;3.45;;
4466;SDS011;2246;42.664;23.278;2024-01-30T06:31:57;6.32;;;3.40;;
4466;SDS011;2246;42.664;23.278;2024-01-30T06:34:23;8.90;;;3.70;;
4466;SDS011;2246;42.664;23.278;2024-01-30T06:36:51;7.55;;;3.67;;
4466;SDS011;2246;42.664;23.278;2024-01-30T06:39:17;10.52;;;4.30;;
4466;SDS011;2246;42.664;23.278;2024-01-30T06:41:43;13.30;;;3.75;;
4466;SDS011;2246;42.664;23.278;2024-01-30T06:44:11;7.93;;;3.10;;
4466;SDS011;2246;42.664;23.278;2024-01-30T06:46:37;8.60;;;3.67;;
4466;SDS011;2246;42.664;23.278;2024-01-30T06:49:04;13.98;;;3.95;;
4466;SDS011;2246;42.664;23.278;2024-01-30T06:51:30;11.13;;;3.97;;
4466;SDS011;2246;42.664;23.278;2024-01-30T06:53:56;10.10;;;3.88;;
4466;SDS011;2246;42.664;23.278;2024-01-30T06:56:22;8.20;;;3.28;;
4466;SDS011;2246;42.664;23.278;2024-01-30T06:58:48;7.05;;;3.53;;
4466;SDS011;2246;42.664;23.278;2024-01-30T07:01:14;16.08;;;4.00;;
4466;SDS011;2246;42.664;23.278;2024-01-30T07:03:41;8.98;;;3.97;;
4466;SDS011;2246;42.664;23.278;2024-01-30T07:06:07;8.98;;;3.53;;
4466;SDS011;2246;42.664;23.278;2024-01-30T07:08:33;7.85;;;3.80;;
4466;SDS011;2246;42.664;23.278;2024-01-30T07:10:59;9.77;;;3.72;;
4466;SDS011;2246;42.664;23.278;2024-01-30T07:13:25;6.75;;;3.25;;
4466;SDS011;2246;42.664;23.278;2024-01-30T07:15:51;7.03;;;3.13;;
4466;SDS011;2246;42.664;23.278;2024-01-30T07:18:17;12.18;;;2.65;;
4466;SDS011;2246;42.664;23.278;2024-01-30T07:20:43;5.20;;;2.83;;
4466;SDS011;2246;42.664;23.278;2024-01-30T07:23:12;7.00;;;3.25;;
4466;SDS011;2246;42.664;23.278;2024-01-30T07:25:40;10.23;;;3.40;;
4466;SDS011;2246;42.664;23.278;2024-01-30T07:28:09;9.48;;;3.80;;
4466;SDS011;2246;42.664;23.278;2024-01-30T07:30:36;6.70;;;3.08;;
4466;SDS011;2246;42.664;23.278;2024-01-30T07:33:03;4.88;;;2.10;;
4466;SDS011;2246;42.664;23.278;2024-01-30T07:35:29;5.30;;;2.13;;
4466;SDS011;2246;42.664;23.278;2024-01-30T07:37:55;5.63;;;2.28;;
4466;SDS011;2246;42.664;23.278;2024-01-30T07:40:22;5.50;;;2.10;;
4466;SDS011;2246;42.664;23.278;2024-01-30T07:42:48;3.70;;;1.90;;
4466;SDS011;2246;42.664;23.278;2024-01-30T07:45:14;4.28;;;1.85;;
4466;SDS011;2246;42.664;23.278;2024-01-30T07:47:41;3.22;;;1.80;;
4466;SDS011;2246;42.664;23.278;2024-01-30T07:50:10;3.55;;;1.95;;
4466;SDS011;2246;42.664;23.278;2024-01-30T07:52:36;3.92;;;2.00;;
4466;SDS011;2246;42.664;23.278;2024-01-30T07:55:02;4.22;;;1.98;;
4466;SDS011;2246;42.664;23.278;2024-01-30T07:57:29;3.63;;;2.00;;
4466;SDS011;2246;42.664;23.278;2024-01-30T07:59:55;3.50;;;1.83;;
4466;SDS011;2246;42.664;23.278;2024-01-30T08:02:22;4.85;;;2.33;;
4466;SDS011;2246;42.664;23.278;2024-01-30T08:04:48;5.65;;;2.35;;
4466;SDS011;2246;42.664;23.278;2024-01-30T08:07:14;4.60;;;1.95;;
4466;SDS011;2246;42.664;23.278;2024-01-30T08:12:08;4.07;;;2.00;;
4466;SDS011;2246;42.664;23.278;2024-01-30T08:14:34;6.20;;;2.30;;
4466;SDS011;2246;42.664;23.278;2024-01-30T08:17:00;4.68;;;2.40;;
4466;SDS011;2246;42.664;23.278;2024-01-30T08:19:26;7.05;;;2.58;;
4466;SDS011;2246;42.664;23.278;2024-01-30T08:21:52;5.10;;;2.53;;
4466;SDS011;2246;42.664;23.278;2024-01-30T08:24:18;8.88;;;2.70;;
4466;SDS011;2246;42.664;23.278;2024-01-30T08:26:44;8.27;;;2.20;;
4466;SDS011;2246;42.664;23.278;2024-01-30T08:29:10;6.30;;;2.50;;
4466;SDS011;2246;42.664;23.278;2024-01-30T08:31:36;5.10;;;2.53;;
4466;SDS011;2246;42.664;23.278;2024-01-30T08:34:02;3.70;;;2.15;;
4466;SDS011;2246;42.664;23.278;2024-01-30T08:36:28;10.70;;;2.20;;
4466;SDS011;2246;42.664;23.278;2024-01-30T08:38:54;5.22;;;2.35;;
4466;SDS011;2246;42.664;23.278;2024-01-30T08:41:20;6.90;;;2.72;;
4466;SDS011;2246;42.664;23.278;2024-01-30T08:43:46;5.93;;;2.88;;
4466;SDS011;2246;42.664;23.278;2024-01-30T08:46:12;8.02;;;2.60;;
4466;SDS011;2246;42.664;23.278;2024-01-30T08:48:38;10.38;;;3.15;;
4466;SDS011;2246;42.664;23.278;2024-01-30T08:51:04;4.03;;;2.58;;
4466;SDS011;2246;42.664;23.278;2024-01-30T08:53:33;4.22;;;2.45;;
4466;SDS011;2246;42.664;23.278;2024-01-30T08:55:59;4.28;;;2.53;;
4466;SDS011;2246;42.664;23.278;2024-01-30T08:58:25;6.53;;;2.50;;
4466;SDS011;2246;42.664;23.278;2024-01-30T09:00:51;6.78;;;2.67;;
4466;SDS011;2246;42.664;23.278;2024-01-30T09:03:17;11.00;;;3.53;;
4466;SDS011;2246;42.664;23.278;2024-01-30T09:05:44;10.50;;;3.65;;
4466;SDS011;2246;42.664;23.278;2024-01-30T09:08:10;6.95;;;3.50;;
4466;SDS011;2246;42.664;23.278;2024-01-30T09:10:36;10.02;;;3.20;;
4466;SDS011;2246;42.664;23.278;2024-01-30T09:13:02;7.70;;;3.25;;
4466;SDS011;2246;42.664;23.278;2024-01-30T09:15:28;6.22;;;3.15;;
4466;SDS011;2246;42.664;23.278;2024-01-30T09:17:54;5.75;;;2.78;;
4466;SDS011;2246;42.664;23.278;2024-01-30T09:20:20;7.90;;;3.90;;
4466;SDS011;2246;42.664;23.278;2024-01-30T09:22:48;10.75;;;3.63;;
4466;SDS011;2246;42.664;23.278;2024-01-30T09:25:14;5.07;;;2.90;;
4466;SDS011;2246;42.664;23.278;2024-01-30T09:27:40;8.43;;;3.35;;
4466;SDS011;2246;42.664;23.278;2024-01-30T09:30:06;7.38;;;3.50;;
4466;SDS011;2246;42.664;23.278;2024-01-30T09:32:33;4.82;;;2.85;;
4466;SDS011;2246;42.664;23.278;2024-01-30T09:34:59;5.78;;;2.75;;
4466;SDS011;2246;42.664;23.278;2024-01-30T09:37:25;6.32;;;3.00;;
4466;SDS011;2246;42.664;23.278;2024-01-30T09:39:51;4.95;;;2.63;;
4466;SDS011;2246;42.664;23.278;2024-01-30T09:44:46;11.10;;;3.67;;
4466;SDS011;2246;42.664;23.278;2024-01-30T09:47:12;6.18;;;2.95;;
4466;SDS011;2246;42.664;23.278;2024-01-30T09:49:38;7.75;;;3.50;;
4466;SDS011;2246;42.664;23.278;2024-01-30T09:52:05;6.53;;;2.88;;
4466;SDS011;2246;42.664;23.278;2024-01-30T09:54:31;5.15;;;2.83;;
4466;SDS011;2246;42.664;23.278;2024-01-30T09:56:57;7.03;;;3.22;;
4466;SDS011;2246;42.664;23.278;2024-01-30T09:59:24;6.65;;;2.88;;
4466;SDS011;2246;42.664;23.278;2024-01-30T10:01:50;4.93;;;2.22;;
4466;SDS011;2246;42.664;23.278;2024-01-30T10:04:16;5.38;;;2.90;;
4466;SDS011;2246;42.664;23.278;2024-01-30T10:06:42;8.50;;;3.45;;
4466;SDS011;2246;42.664;23.278;2024-01-30T10:09:08;7.13;;;3.15;;
4466;SDS011;2246;42.664;23.278;2024-01-30T10:11:35;5.00;;;2.88;;
4466;SDS011;2246;42.664;23.278;2024-01-30T10:14:01;6.72;;;2.83;;
4466;SDS011;2246;42.664;23.278;2024-01-30T10:16:28;5.78;;;2.60;;
4466;SDS011;2246;42.664;23.278;2024-01-30T10:18:54;6.45;;;2.70;;
4466;SDS011;2246;42.664;23.278;2024-01-30T10:21:20;9.63;;;2.83;;
4466;SDS011;2246;42.664;23.278;2024-01-30T10:23:46;5.15;;;2.55;;
4466;SDS011;2246;42.664;23.278;2024-01-30T10:26:13;7.90;;;3.40;;
4466;SDS011;2246;42.664;23.278;2024-01-30T10:28:39;5.65;;;2.50;;
4466;SDS011;2246;42.664;23.278;2024-01-30T10:31:05;7.05;;;3.28;;
4466;SDS011;2246;42.664;23.278;2024-01-30T10:33:31;4.82;;;2.33;;
4466;SDS011;2246;42.664;23.278;2024-01-30T10:36:04;4.78;;;2.72;;
4466;SDS011;2246;42.664;23.278;2024-01-30T10:38:31;5.88;;;2.35;;
4466;SDS011;2246;42.664;23.278;2024-01-30T10:40:58;7.75;;;3.47;;
4466;SDS011;2246;42.664;23.278;2024-01-30T10:43:29;6.45;;;2.90;;
4466;SDS011;2246;42.664;23.278;2024-01-30T10:45:57;4.45;;;2.63;;
4466;SDS011;2246;42.664;23.278;2024-01-30T10:48:24;5.70;;;2.58;;
4466;SDS011;2246;42.664;23.278;2024-01-30T10:50:54;6.03;;;2.55;;
4466;SDS011;2246;42.664;23.278;2024-01-30T10:53:21;6.22;;;2.90;;
4466;SDS011;2246;42.664;23.278;2024-01-30T10:55:48;6.13;;;2.88;;
4466;SDS011;2246;42.664;23.278;2024-01-30T10:58:15;4.97;;;3.07;;
4466;SDS011;2246;42.664;23.278;2024-01-30T11:00:41;13.35;;;3.10;;
4466;SDS011;2246;42.664;23.278;2024-01-30T11:03:07;6.55;;;2.80;;
4466;SDS011;2246;42.664;23.278;2024-01-30T11:05:34;8.35;;;3.40;;
4466;SDS011;2246;42.664;23.278;2024-01-30T11:08:10;4.88;;;2.42;;
4466;SDS011;2246;42.664;23.278;2024-01-30T11:10:44;5.85;;;2.90;;
4466;SDS011;2246;42.664;23.278;2024-01-30T11:13:10;6.25;;;2.47;;
4466;SDS011;2246;42.664;23.278;2024-01-30T11:15:37;4.93;;;2.47;;
4466;SDS011;2246;42.664;23.278;2024-01-30T11:18:03;7.90;;;2.70;;
4466;SDS011;2246;42.664;23.278;2024-01-30T11:20:30;8.48;;;2.20;;
4466;SDS011;2246;42.664;23.278;2024-01-30T11:22:56;4.73;;;2.70;;
4466;SDS011;2246;42.664;23.278;2024-01-30T11:25:23;4.70;;;2.55;;
4466;SDS011;2246;42.664;23.278;2024-01-30T11:27:50;4.35;;;2.28;;
4466;SDS011;2246;42.664;23.278;2024-01-30T11:30:26;5.00;;;2.65;;
4466;SDS011;2246;42.664;23.278;2024-01-30T11:35:24;4.28;;;2.75;;
4466;SDS011;2246;42.664;23.278;2024-01-30T11:37:51;6.20;;;3.03;;
4466;SDS011;2246;42.664;23.278;2024-01-30T11:40:17;5.72;;;2.85;;
4466;SDS011;2246;42.664;23.278;2024-01-30T11:42:43;6.78;;;2.88;;
4466;SDS011;2246;42.664;23.278;2024-01-30T11:45:09;7.68;;;3.35;;
4466;SDS011;2246;42.664;23.278;2024-01-30T11:47:36;5.68;;;2.60;;
4466;SDS011;2246;42.664;23.278;2024-01-30T11:50:03;6.32;;;3.03;;
4466;SDS011;2246;42.664;23.278;2024-01-30T11:52:31;4.43;;;2.35;;
4466;SDS011;2246;42.664;23.278;2024-01-30T11:54:57;8.55;;;3.25;;
4466;SDS011;2246;42.664;23.278;2024-01-30T11:57:23;6.30;;;2.67;;
4466;SDS011;2246;42.664;23.278;2024-01-30T11:59:49;3.63;;;2.20;;
4466;SDS011;2246;42.664;23.278;2024-01-30T12:02:15;4.60;;;2.58;;
4466;SDS011;2246;42.664;23.278;2024-01-30T12:04:42;4.68;;;2.78;;
4466;SDS011;2246;42.664;23.278;2024-01-30T12:07:08;3.80;;;2.30;;
4466;SDS011;2246;42.664;23.278;2024-01-30T12:09:34;7.50;;;2.65;;
4466;SDS011;2246;42.664;23.278;2024-01-30T12:12:00;6.15;;;2.80;;
4466;SDS011;2246;42.664;23.278;2024-01-30T12:14:26;6.28;;;2.95;;
4466;SDS011;2246;42.664;23.278;2024-01-30T12:16:52;5.15;;;2.78;;
4466;SDS011;2246;42.664;23.278;2024-01-30T12:19:24;4.70;;;2.40;;
4466;SDS011;2246;42.664;23.278;2024-01-30T12:21:57;6.30;;;2.75;;
4466;SDS011;2246;42.664;23.278;2024-01-30T12:24:27;7.00;;;3.08;;
4466;SDS011;2246;42.664;23.278;2024-01-30T12:26:58;5.97;;;2.63;;
4466;SDS011;2246;42.664;23.278;2024-01-30T12:29:25;8.77;;;2.95;;
4466;SDS011;2246;42.664;23.278;2024-01-30T12:31:54;5.30;;;3.10;;
4466;SDS011;2246;42.664;23.278;2024-01-30T12:34:20;5.22;;;3.15;;
4466;SDS011;2246;42.664;23.278;2024-01-30T12:36:47;7.38;;;3.38;;
4466;SDS011;2246;42.664;23.278;2024-01-30T12:39:14;6.45;;;3.10;;
4466;SDS011;2246;42.664;23.278;2024-01-30T12:41:40;6.32;;;3.10;;
4466;SDS011;2246;42.664;23.278;2024-01-30T12:44:06;6.28;;;3.00;;
4466;SDS011;2246;42.664;23.278;2024-01-30T12:46:34;7.75;;;2.88;;
4466;SDS011;2246;42.664;23.278;2024-01-30T12:49:00;18.67;;;3.03;;
4466;SDS011;2246;42.664;23.278;2024-01-30T12:51:26;4.20;;;2.80;;
4466;SDS011;2246;42.664;23.278;2024-01-30T12:53:52;5.50;;;3.00;;
4466;SDS011;2246;42.664;23.278;2024-01-30T12:56:18;7.22;;;3.50;;
4466;SDS011;2246;42.664;23.278;2024-01-30T12:58:44;6.45;;;3.53;;
4466;SDS011;2246;42.664;23.278;2024-01-30T13:01:10;9.57;;;3.55;;
4466;SDS011;2246;42.664;23.278;2024-01-30T13:03:36;5.65;;;2.85;;
4466;SDS011;2246;42.664;23.278;2024-01-30T13:06:02;6.18;;;3.20;;
4466;SDS011;2246;42.664;23.278;2024-01-30T13:08:28;6.15;;;3.13;;
4466;SDS011;2246;42.664;23.278;2024-01-30T13:10:54;6.03;;;3.22;;
4466;SDS011;2246;42.664;23.278;2024-01-30T13:13:20;10.07;;;3.45;;
4466;SDS011;2246;42.664;23.278;2024-01-30T13:15:47;9.85;;;3.10;;
4466;SDS011;2246;42.664;23.278;2024-01-30T13:18:13;8.80;;;2.95;;
4466;SDS011;2246;42.664;23.278;2024-01-30T13:20:39;8.20;;;3.58;;
4466;SDS011;2246;42.664;23.278;2024-01-30T13:23:05;7.78;;;3.67;;
4466;SDS011;2246;42.664;23.278;2024-01-30T13:25:31;7.35;;;3.42;;
4466;SDS011;2246;42.664;23.278;2024-01-30T13:27:57;7.97;;;3.55;;
4466;SDS011;2246;42.664;23.278;2024-01-30T13:30:23;9.50;;;3.55;;
4466;SDS011;2246;42.664;23.278;2024-01-30T13:32:49;6.43;;;3.10;;
4466;SDS011;2246;42.664;23.278;2024-01-30T13:35:15;10.60;;;3.65;;
4466;SDS011;2246;42.664;23.278;2024-01-30T13:37:41;6.63;;;3.20;;
4466;SDS011;2246;42.664;23.278;2024-01-30T13:40:07;9.70;;;3.70;;
4466;SDS011;2246;42.664;23.278;2024-01-30T13:42:34;6.15;;;3.42;;
4466;SDS011;2246;42.664;23.278;2024-01-30T13:45:00;11.05;;;3.78;;
4466;SDS011;2246;42.664;23.278;2024-01-30T13:47:26;6.95;;;2.90;;
4466;SDS011;2246;42.664;23.278;2024-01-30T13:49:52;9.68;;;3.60;;
4466;SDS011;2246;42.664;23.278;2024-01-30T13:52:18;6.75;;;3.17;;
4466;SDS011;2246;42.664;23.278;2024-01-30T13:54:44;7.50;;;3.40;;
4466;SDS011;2246;42.664;23.278;2024-01-30T13:57:10;7.13;;;3.08;;
4466;SDS011;2246;42.664;23.278;2024-01-30T13:59:37;6.60;;;3.25;;
4466;SDS011;2246;42.664;23.278;2024-01-30T14:02:03;7.28;;;3.38;;
4466;SDS011;2246;42.664;23.278;2024-01-30T14:04:30;6.35;;;3.20;;
4466;SDS011;2246;42.664;23.278;2024-01-30T14:06:56;10.35;;;3.70;;
4466;SDS011;2246;42.664;23.278;2024-01-30T14:09:22;7.15;;;3.28;;
4466;SDS011;2246;42.664;23.278;2024-01-30T14:11:49;6.30;;;2.65;;
4466;SDS011;2246;42.664;23.278;2024-01-30T14:14:15;5.95;;;3.03;;
4466;SDS011;2246;42.664;23.278;2024-01-30T14:16:41;7.90;;;3.10;;
4466;SDS011;2246;42.664;23.278;2024-01-30T14:19:06;6.93;;;3.40;;
4466;SDS011;2246;42.664;23.278;2024-01-30T14:21:32;5.93;;;3.40;;
4466;SDS011;2246;42.664;23.278;2024-01-30T14:23:58;6.32;;;3.25;;
4466;SDS011;2246;42.664;23.278;2024-01-30T14:26:25;9.43;;;3.67;;
4466;SDS011;2246;42.664;23.278;2024-01-30T14:28:51;6.97;;;3.67;;
4466;SDS011;2246;42.664;23.278;2024-01-30T14:31:17;6.90;;;3.65;;
4466;SDS011;2246;42.664;23.278;2024-01-30T14:33:43;8.27;;;3.85;;
4466;SDS011;2246;42.664;23.278;2024-01-30T14:36:09;8.77;;;3.90;;
4466;SDS011;2246;42.664;23.278;2024-01-30T14:38:35;10.13;;;3.95;;
4466;SDS011;2246;42.664;23.278;2024-01-30T14:41:01;9.57;;;3.92;;
4466;SDS011;2246;42.664;23.278;2024-01-30T14:43:28;14.93;;;4.43;;
4466;SDS011;2246;42.664;23.278;2024-01-30T14:45:54;5.78;;;3.63;;
4466;SDS011;2246;42.664;23.278;2024-01-30T14:48:20;4.97;;;2.88;;
4466;SDS011;2246;42.664;23.278;2024-01-30T14:50:47;7.00;;;3.20;;
4466;SDS011;2246;42.664;23.278;2024-01-30T14:53:13;10.50;;;4.32;;
4466;SDS011;2246;42.664;23.278;2024-01-30T14:55:39;10.35;;;4.78;;
4466;SDS011;2246;42.664;23.278;2024-01-30T14:58:05;10.73;;;4.60;;
4466;SDS011;2246;42.664;23.278;2024-01-30T15:00:31;9.05;;;3.78;;
4466;SDS011;2246;42.664;23.278;2024-01-30T15:02:57;9.88;;;4.13;;